Time;durP1;ratioP1;P1;durP2;ratioP2;P2;SDS_P1;SDS_P2;PMS_P1;PMS_P2;Temp;Humidity;BMP_temperature;BMP_pressure;BME280_temperature;BME280_humidity;BME280_pressure;Samples;Min_cycle;Max_cycle;Signal;HPM_P1;HPM_P2
2023/06/28 00:01:59;;;;;;;12.57;4.10;;;16.10;99.90;;;;;;5056148;28;20274;-73
2023/06/28 00:04:29;;;;;;;11.80;4.70;;;16.10;99.90;;;;;;5057345;28;20220;-74
2023/06/28 00:07:08;;;;;;;6.78;4.05;;;16.00;99.90;;;;;;5062942;28;20253;-73
2023/06/28 00:09:45;;;;;;;8.73;4.63;;;16.10;99.90;;;;;;5052776;28;20303;-74
2023/06/28 00:12:22;;;;;;;5.90;4.47;;;16.00;99.90;;;;;;5054314;28;20232;-73
2023/06/28 00:14:54;;;;;;;11.63;4.53;;;15.90;99.90;;;;;;5058776;28;20211;-74
2023/06/28 00:17:28;;;;;;;15.70;5.30;;;15.90;99.90;;;;;;5057235;28;20206;-73
2023/06/28 00:19:58;;;;;;;14.43;5.25;;;15.90;99.90;;;;;;5052184;28;20202;-73
2023/06/28 00:22:39;;;;;;;9.55;4.32;;;15.90;99.90;;;;;;5051562;28;20215;-74
2023/06/28 00:25:12;;;;;;;7.18;4.93;;;15.90;99.90;;;;;;5055651;28;20278;-73
2023/06/28 00:27:41;;;;;;;7.63;4.25;;;15.90;99.90;;;;;;5054290;28;20204;-73
2023/06/28 00:30:15;;;;;;;12.52;5.15;;;15.80;99.90;;;;;;5057974;28;20203;-74
2023/06/28 00:32:52;;;;;;;9.98;5.40;;;15.80;99.90;;;;;;5061745;28;20229;-72
2023/06/28 00:35:24;;;;;;;7.32;5.25;;;15.80;99.90;;;;;;5053738;28;20226;-73
2023/06/28 00:37:53;;;;;;;22.27;6.07;;;15.80;99.90;;;;;;5060145;28;20203;-75
2023/06/28 00:40:25;;;;;;;11.48;4.97;;;15.80;99.90;;;;;;5052815;28;20204;-73
2023/06/28 00:42:56;;;;;;;9.65;4.53;;;15.80;99.90;;;;;;5060719;28;20277;-74
2023/06/28 00:45:31;;;;;;;9.98;5.18;;;15.80;99.90;;;;;;5057373;28;20596;-74
2023/06/28 00:48:04;;;;;;;7.28;4.78;;;15.70;99.90;;;;;;5062531;28;20199;-73
2023/06/28 00:50:31;;;;;;;9.80;5.00;;;15.80;99.90;;;;;;5063268;28;20200;-73
2023/06/28 00:53:11;;;;;;;16.48;5.03;;;15.80;99.90;;;;;;5062359;28;20223;-74
2023/06/28 00:55:41;;;;;;;10.85;5.07;;;15.80;99.90;;;;;;5059302;28;20227;-74
2023/06/28 00:58:09;;;;;;;10.50;5.00;;;15.70;99.90;;;;;;5064531;28;20203;-74
2023/06/28 01:00:36;;;;;;;13.95;5.18;;;15.70;99.90;;;;;;5056731;28;20212;-74
2023/06/28 01:03:18;;;;;;;9.88;6.05;;;15.70;99.90;;;;;;5062217;28;20646;-73
2023/06/28 01:06:17;;;;;;;18.27;5.65;;;15.70;99.90;;;;;;5064100;28;20203;-74
2023/06/28 01:08:54;;;;;;;10.75;4.60;;;15.70;99.90;;;;;;4998040;28;20205;-74
2023/06/28 01:11:22;;;;;;;13.05;5.50;;;15.70;99.90;;;;;;5055067;28;20208;-73
2023/06/28 01:13:59;;;;;;;10.32;5.18;;;15.70;99.90;;;;;;5062917;28;20228;-74
2023/06/28 01:16:33;;;;;;;8.45;4.57;;;15.70;99.90;;;;;;5059088;28;20195;-74
2023/06/28 01:19:16;;;;;;;9.95;5.28;;;15.70;99.90;;;;;;5063610;28;20712;-74
2023/06/28 01:21:59;;;;;;;11.20;4.88;;;15.70;99.90;;;;;;5057696;28;20200;-75
2023/06/28 02:52:39;;;;;;;15.52;7.80;;;15.10;99.90;;;;;;5066039;28;20253;-73
2023/06/28 02:55:10;;;;;;;8.00;6.35;;;15.00;99.90;;;;;;5054884;28;20227;-74
2023/06/28 02:57:44;;;;;;;19.25;7.80;;;15.00;99.90;;;;;;5056427;28;20548;-73
2023/06/28 03:00:18;;;;;;;8.90;7.00;;;15.00;99.90;;;;;;5059570;28;20229;-73
2023/06/28 03:02:48;;;;;;;13.57;6.95;;;15.00;99.90;;;;;;5055393;28;20567;-73
2023/06/28 03:05:22;;;;;;;12.68;6.38;;;15.10;99.90;;;;;;5061766;28;20277;-74
2023/06/28 03:07:51;;;;;;;13.95;6.65;;;15.10;99.90;;;;;;5061408;28;20203;-75
2023/06/28 03:10:25;;;;;;;11.02;6.95;;;15.10;99.90;;;;;;5061321;28;20199;-75
2023/06/28 03:12:53;;;;;;;12.13;7.53;;;15.10;99.90;;;;;;5058136;28;20226;-75
2023/06/28 03:15:28;;;;;;;12.10;6.50;;;15.10;99.90;;;;;;5055030;28;20227;-75
2023/06/28 03:17:56;;;;;;;10.70;6.07;;;15.00;99.90;;;;;;5055765;28;20203;-74
2023/06/28 03:20:30;;;;;;;15.25;7.25;;;15.10;99.90;;;;;;5059323;28;20282;-73
2023/06/28 03:23:03;;;;;;;25.02;7.50;;;15.10;99.90;;;;;;5064922;28;20222;-73
2023/06/28 03:25:37;;;;;;;11.35;6.65;;;15.00;99.90;;;;;;5056010;28;20196;-74
2023/06/28 03:28:10;;;;;;;11.43;6.43;;;15.10;99.90;;;;;;5060801;28;20207;-74
2023/06/28 03:30:40;;;;;;;7.72;6.10;;;15.20;99.90;;;;;;5054567;28;20260;-75
2023/06/28 03:33:15;;;;;;;12.52;6.55;;;15.20;99.90;;;;;;5057788;28;20220;-73
2023/06/28 03:35:49;;;;;;;11.48;7.15;;;15.20;99.90;;;;;;5060610;28;20230;-73
2023/06/28 03:38:18;;;;;;;7.63;6.28;;;15.20;99.90;;;;;;5057828;28;20199;-75
2023/06/28 03:40:46;;;;;;;13.32;7.07;;;15.20;99.90;;;;;;5054212;28;20210;-75
2023/06/28 03:43:15;;;;;;;9.45;6.15;;;15.30;99.90;;;;;;5058749;28;20227;-76
2023/06/28 03:45:50;;;;;;;9.57;7.07;;;15.30;99.90;;;;;;5051929;28;20210;-74
2023/06/28 03:48:21;;;;;;;10.88;6.32;;;15.20;99.90;;;;;;5060259;28;20247;-73
2023/06/28 03:50:52;;;;;;;21.10;7.18;;;15.30;99.90;;;;;;5064951;28;20233;-74
2023/06/28 03:53:24;;;;;;;13.80;7.30;;;15.30;99.90;;;;;;5059224;28;20228;-75
2023/06/28 03:55:53;;;;;;;10.40;7.63;;;15.40;99.90;;;;;;5062741;28;20215;-75
2023/06/28 03:58:21;;;;;;;11.70;7.80;;;15.40;99.90;;;;;;5051200;28;20204;-75
2023/06/28 04:00:52;;;;;;;11.38;7.55;;;15.40;99.90;;;;;;5051947;28;20215;-75
2023/06/28 04:03:34;;;;;;;15.13;7.15;;;15.50;99.90;;;;;;5051378;28;20236;-74
2023/06/28 04:06:13;;;;;;;11.95;7.25;;;15.60;99.90;;;;;;5050697;28;20671;-73
2023/06/28 04:08:47;;;;;;;11.63;6.78;;;15.80;99.90;;;;;;5047790;28;20216;-73
2023/06/28 04:11:23;;;;;;;11.18;6.65;;;16.40;99.90;;;;;;5059423;28;20209;-73
2023/06/28 04:13:55;;;;;;;11.35;5.97;;;17.00;99.90;;;;;;5055825;28;20299;-74
2023/06/28 04:16:33;;;;;;;10.17;5.83;;;17.50;99.90;;;;;;5062675;28;20205;-74
2023/06/28 04:19:01;;;;;;;8.23;4.43;;;18.00;99.90;;;;;;5060094;28;20454;-74
2023/06/28 04:21:35;;;;;;;14.27;5.80;;;18.80;99.90;;;;;;5057397;28;20456;-73
2023/06/28 04:24:09;;;;;;;8.17;4.87;;;19.40;99.90;;;;;;5061286;28;20552;-74
2023/06/28 04:26:51;;;;;;;7.57;4.23;;;20.00;99.90;;;;;;5060706;28;20498;-74
2023/06/28 04:29:19;;;;;;;11.03;4.73;;;20.70;99.90;;;;;;5052828;28;20524;-73
2023/06/28 04:31:55;;;;;;;7.40;4.50;;;21.30;99.90;;;;;;5064087;28;20440;-74
2023/06/28 04:34:26;;;;;;;9.90;5.03;;;21.90;99.90;;;;;;5055773;28;20953;-75
2023/06/28 04:36:55;;;;;;;7.30;4.37;;;22.20;99.90;;;;;;5062878;28;20449;-72
2023/06/28 04:39:31;;;;;;;10.20;5.27;;;22.50;99.90;;;;;;5063626;28;20453;-72
2023/06/28 04:42:03;;;;;;;10.00;4.63;;;23.00;99.90;;;;;;5062228;28;20438;-73
2023/06/28 04:44:36;;;;;;;8.67;4.63;;;23.40;99.90;;;;;;5070419;28;20465;-72
2023/06/28 04:47:05;;;;;;;9.80;4.33;;;23.00;99.90;;;;;;5066980;28;20471;-73
2023/06/28 04:49:35;;;;;;;8.27;4.63;;;23.40;99.90;;;;;;5065183;28;20483;-76
2023/06/28 04:52:08;;;;;;;7.90;4.90;;;24.20;99.90;;;;;;5053469;28;20453;-73
2023/06/28 04:54:37;;;;;;;9.60;4.60;;;24.80;98.20;;;;;;5055899;28;20560;-72
2023/06/28 04:57:05;;;;;;;6.90;4.17;;;25.20;96.30;;;;;;5053037;28;20773;-75
2023/06/28 04:59:33;;;;;;;7.70;4.00;;;25.70;95.00;;;;;;5049258;28;20465;-74
2023/06/28 05:02:05;;;;;;;4.27;3.23;;;25.90;93.60;;;;;;5059323;28;20525;-74
2023/06/28 05:04:35;;;;;;;10.73;5.17;;;26.10;93.10;;;;;;5052329;28;20473;-73
2023/06/28 05:07:06;;;;;;;10.27;4.90;;;26.60;92.30;;;;;;5056726;28;20449;-74
2023/06/28 05:09:42;;;;;;;8.13;4.33;;;27.10;91.30;;;;;;5052446;28;20450;-73
2023/06/28 05:12:10;;;;;;;8.93;4.97;;;27.60;90.30;;;;;;5061537;28;20441;-74
2023/06/28 05:14:43;;;;;;;8.63;5.00;;;27.60;88.20;;;;;;5055999;28;20504;-73
2023/06/28 05:17:26;;;;;;;8.20;4.00;;;27.90;88.50;;;;;;5058647;28;20749;-73
2023/06/28 05:20:17;;;;;;;7.83;3.83;;;28.00;87.00;;;;;;5056483;28;20446;-74
2023/06/28 05:22:49;;;;;;;7.57;3.60;;;28.30;86.50;;;;;;5068463;28;20453;-75
2023/06/28 05:25:46;;;;;;;10.43;4.30;;;29.00;85.30;;;;;;5059324;28;20437;-76
2023/06/28 05:28:18;;;;;;;7.63;3.70;;;29.50;82.80;;;;;;5067896;28;20951;-73
2023/06/28 05:30:45;;;;;;;7.90;4.60;;;29.50;82.10;;;;;;5058168;28;20447;-74
2023/06/28 05:33:22;;;;;;;8.30;4.10;;;29.70;81.50;;;;;;5070854;28;20462;-72
2023/06/28 05:35:54;;;;;;;10.03;4.77;;;29.90;81.00;;;;;;5061766;28;20530;-71
2023/06/28 05:38:25;;;;;;;8.60;4.60;;;29.30;81.20;;;;;;5057739;28;20482;-74
2023/06/28 05:41:16;;;;;;;10.87;4.40;;;28.90;82.60;;;;;;5066202;28;20449;-75
2023/06/28 05:43:49;;;;;;;8.13;4.20;;;28.80;83.10;;;;;;5072255;28;20485;-74
2023/06/28 05:46:21;;;;;;;7.23;4.10;;;28.40;83.40;;;;;;5063605;28;20443;-72
2023/06/28 05:48:52;;;;;;;7.90;3.13;;;29.10;83.60;;;;;;5067134;28;20441;-73
2023/06/28 05:51:24;;;;;;;8.33;3.77;;;29.40;82.50;;;;;;5059900;28;20997;-73
2023/06/28 05:53:54;;;;;;;8.53;3.57;;;29.90;81.40;;;;;;5058045;28;20473;-73
2023/06/28 05:56:35;;;;;;;6.53;3.70;;;30.50;79.90;;;;;;5051635;28;20479;-74
2023/06/28 05:59:08;;;;;;;9.20;3.70;;;30.80;78.70;;;;;;5057511;28;20449;-73
2023/06/28 06:01:46;;;;;;;6.83;3.83;;;31.00;77.70;;;;;;5059490;28;20431;-72
2023/06/28 06:04:17;;;;;;;13.67;3.97;;;31.30;76.50;;;;;;5053823;28;20465;-72
2023/06/28 06:06:55;;;;;;;8.20;3.50;;;31.70;76.10;;;;;;5063078;28;20844;-73
2023/06/28 06:09:30;;;;;;;7.87;3.20;;;32.30;74.70;;;;;;5060633;28;20532;-71
2023/06/28 06:11:59;;;;;;;7.53;3.60;;;32.50;73.70;;;;;;5060199;28;20448;-71
2023/06/28 06:14:30;;;;;;;6.57;3.57;;;32.30;72.60;;;;;;5058187;28;20453;-72
2023/06/28 06:17:04;;;;;;;9.00;4.53;;;31.70;74.40;;;;;;5055728;28;20452;-73
2023/06/28 06:19:31;;;;;;;8.33;4.03;;;31.00;74.50;;;;;;5058801;28;20500;-72
2023/06/28 06:22:08;;;;;;;6.07;3.60;;;30.90;76.20;;;;;;5052138;28;20450;-72
2023/06/28 06:24:50;;;;;;;13.83;4.23;;;30.80;75.80;;;;;;5051949;28;20505;-72
2023/06/28 06:27:22;;;;;;;8.53;4.40;;;30.30;75.90;;;;;;5048495;28;20459;-72
2023/06/28 06:29:55;;;;;;;7.97;3.27;;;30.00;77.10;;;;;;5060716;28;20971;-72
2023/06/28 06:32:25;;;;;;;7.67;3.63;;;30.20;78.70;;;;;;5052918;28;20441;-72
2023/06/28 06:34:53;;;;;;;7.60;2.73;;;30.20;77.30;;;;;;5049517;28;20451;-73
2023/06/28 06:37:32;;;;;;;7.93;3.80;;;30.40;77.90;;;;;;5060079;28;20524;-73
2023/06/28 06:40:03;;;;;;;9.37;3.67;;;29.60;78.60;;;;;;5058529;28;20452;-74
2023/06/28 06:42:45;;;;;;;6.70;3.40;;;29.40;79.50;;;;;;5056611;28;20438;-73
2023/06/28 06:45:19;;;;;;;13.43;4.40;;;29.10;80.20;;;;;;5051920;28;20488;-72
2023/06/28 06:47:50;;;;;;;7.10;3.53;;;28.20;81.40;;;;;;5054671;28;20527;-73
2023/06/28 06:50:20;;;;;;;7.10;3.70;;;27.70;83.80;;;;;;5057992;28;20447;-70
2023/06/28 06:52:54;;;;;;;10.63;2.83;;;28.20;83.80;;;;;;5057951;28;20474;-73
2023/06/28 06:55:24;;;;;;;6.87;2.40;;;28.80;80.60;;;;;;5056253;28;20483;-73
2023/06/28 06:57:55;;;;;;;6.73;2.47;;;30.00;78.80;;;;;;5050834;28;20716;-74
2023/06/28 07:00:23;;;;;;;6.40;2.80;;;31.00;75.70;;;;;;5056864;28;20438;-73
2023/06/28 07:02:55;;;;;;;8.93;3.00;;;31.30;73.90;;;;;;5062440;28;20473;-73
2023/06/28 07:05:25;;;;;;;6.40;2.93;;;29.40;74.50;;;;;;5055223;28;21105;-71
2023/06/28 07:08:02;;;;;;;7.97;2.70;;;27.90;78.90;;;;;;5055262;28;20445;-72
2023/06/28 07:10:35;;;;;;;8.43;2.93;;;27.80;81.10;;;;;;5057121;28;20943;-74
2023/06/28 07:13:07;;;;;;;4.93;2.43;;;28.60;79.80;;;;;;5060276;28;20467;-73
2023/06/28 07:15:44;;;;;;;7.30;3.10;;;30.00;78.30;;;;;;5062189;28;20473;-74
2023/06/28 07:18:11;;;;;;;6.60;2.63;;;31.20;73.90;;;;;;5062094;28;20939;-73
2023/06/28 07:21:18;;;;;;;6.80;2.90;;;31.70;70.30;;;;;;5062108;28;21065;-72
2023/06/28 07:23:48;;;;;;;4.93;2.27;;;31.70;69.70;;;;;;5026970;28;20477;-73
2023/06/28 07:26:27;;;;;;;6.33;2.70;;;32.30;68.30;;;;;;5060159;28;20438;-72
2023/06/28 07:29:07;;;;;;;6.13;3.80;;;32.70;68.10;;;;;;5056363;28;20486;-72
2023/06/28 07:31:34;;;;;;;9.77;2.40;;;33.30;66.20;;;;;;5062581;28;20782;-73
2023/06/28 07:34:08;;;;;;;7.97;2.97;;;34.00;64.40;;;;;;5056257;28;20460;-72
2023/06/28 07:36:52;;;;;;;8.07;4.03;;;33.30;62.90;;;;;;5055625;28;20995;-72
2023/06/28 07:39:27;;;;;;;7.23;2.77;;;33.60;64.40;;;;;;5050546;28;20457;-73
2023/06/28 07:41:57;;;;;;;4.90;3.13;;;34.10;63.30;;;;;;5057029;28;20433;-73
2023/06/28 07:44:29;;;;;;;8.33;3.20;;;34.30;62.10;;;;;;5055932;28;20474;-74
2023/06/28 07:47:01;;;;;;;5.97;2.60;;;34.70;60.70;;;;;;5058286;28;20457;-72
2023/06/28 07:49:31;;;;;;;7.83;3.00;;;35.10;59.70;;;;;;5051055;28;20438;-72
2023/06/28 07:52:20;;;;;;;6.63;2.80;;;34.30;59.20;;;;;;5060183;28;20472;-74
2023/06/28 07:55:00;;;;;;;8.33;3.63;;;32.90;61.80;;;;;;5052551;28;20443;-73
2023/06/28 07:57:30;;;;;;;6.77;2.93;;;32.80;63.50;;;;;;5057618;28;20520;-73
2023/06/28 08:00:03;;;;;;;8.87;1.77;;;33.50;62.50;;;;;;5052393;28;20439;-74
2023/06/28 08:02:30;;;;;;;4.33;2.27;;;34.30;60.10;;;;;;5051171;28;20451;-73
2023/06/28 08:04:58;;;;;;;4.97;2.67;;;34.50;59.20;;;;;;5063354;28;20449;-72
2023/06/28 08:07:25;;;;;;;5.57;1.83;;;35.20;59.10;;;;;;5059190;28;20526;-71
2023/06/28 08:09:52;;;;;;;4.60;1.80;;;35.20;56.80;;;;;;5061015;28;20508;-72
2023/06/28 08:12:19;;;;;;;4.97;3.20;;;35.00;56.70;;;;;;5061481;28;20465;-73
2023/06/28 08:14:47;;;;;;;2.67;1.90;;;34.90;56.70;;;;;;5073937;28;20462;-72
2023/06/28 08:17:15;;;;;;;4.10;2.50;;;35.00;56.60;;;;;;5075735;28;20501;-72
2023/06/28 08:19:42;;;;;;;4.10;2.60;;;35.70;55.40;;;;;;5073440;28;20462;-72
2023/06/28 08:22:09;;;;;;;4.03;2.30;;;35.80;55.00;;;;;;5074068;28;20439;-73
2023/06/28 08:24:41;;;;;;;3.70;2.60;;;35.40;54.50;;;;;;5061567;28;20897;-72
2023/06/28 08:27:08;;;;;;;6.10;2.80;;;35.70;55.70;;;;;;5059841;28;20497;-73
2023/06/28 08:29:35;;;;;;;5.23;2.13;;;35.90;54.10;;;;;;5058914;28;20811;-73
2023/06/28 08:32:02;;;;;;;5.30;3.03;;;35.50;54.40;;;;;;5064262;28;20473;-73
2023/06/28 08:34:30;;;;;;;6.00;2.63;;;35.80;55.30;;;;;;5062305;28;20500;-73
2023/06/28 08:36:57;;;;;;;3.00;2.10;;;35.80;55.30;;;;;;5050932;28;20566;-72
2023/06/28 08:39:24;;;;;;;6.70;2.67;;;34.80;54.70;;;;;;5061654;28;20460;-73
2023/06/28 08:41:52;;;;;;;4.73;2.80;;;33.70;56.50;;;;;;5068088;28;20489;-73
2023/06/28 08:44:23;;;;;;;5.53;2.30;;;32.90;58.50;;;;;;5064560;28;20838;-72
2023/06/28 08:46:51;;;;;;;12.13;6.10;;;33.50;58.70;;;;;;5068004;28;20779;-74
2023/06/28 08:49:19;;;;;;;5.30;2.67;;;34.40;57.90;;;;;;5067101;28;20449;-73
2023/06/28 08:51:48;;;;;;;6.47;2.97;;;33.00;58.60;;;;;;5058573;28;20542;-73
2023/06/28 08:54:15;;;;;;;4.83;2.50;;;31.00;59.90;;;;;;5055886;28;20549;-73
2023/06/28 08:56:42;;;;;;;4.60;2.43;;;29.60;63.70;;;;;;5056618;28;20607;-73
2023/06/28 08:59:10;;;;;;;4.50;2.27;;;29.90;63.50;;;;;;5068145;28;21005;-73
2023/06/28 09:01:38;;;;;;;9.20;2.60;;;30.00;63.80;;;;;;5061766;28;20473;-72
2023/06/28 09:04:06;;;;;;;5.90;2.10;;;29.60;63.50;;;;;;5060207;28;20470;-73
2023/06/28 09:06:34;;;;;;;6.33;3.00;;;29.20;65.20;;;;;;5060685;28;20923;-73
2023/06/28 09:09:03;;;;;;;6.23;2.27;;;28.00;68.10;;;;;;5053940;28;20471;-73
2023/06/28 09:11:31;;;;;;;3.50;2.30;;;28.10;70.60;;;;;;5061107;28;20446;-73
2023/06/28 09:13:59;;;;;;;7.40;2.77;;;28.80;67.30;;;;;;5063079;28;20465;-75
2023/06/28 09:16:26;;;;;;;7.00;2.70;;;29.60;66.10;;;;;;5066145;28;20987;-73
2023/06/28 09:18:53;;;;;;;5.47;2.40;;;30.00;65.70;;;;;;5064323;28;20438;-72
2023/06/28 09:21:25;;;;;;;2.73;2.53;;;30.50;64.40;;;;;;5058320;28;20908;-72
2023/06/28 09:23:52;;;;;;;3.70;2.60;;;30.60;63.00;;;;;;5062191;28;20964;-72
2023/06/28 09:26:21;;;;;;;4.67;2.83;;;29.60;65.30;;;;;;5059457;28;20451;-72
2023/06/28 09:28:50;;;;;;;4.27;2.27;;;29.30;67.50;;;;;;5063145;28;20886;-73
2023/06/28 09:31:19;;;;;;;3.80;2.17;;;30.40;65.10;;;;;;5063875;28;20490;-73
2023/06/28 09:33:46;;;;;;;6.43;2.90;;;31.00;62.40;;;;;;5062267;28;20472;-72
2023/06/28 09:36:14;;;;;;;5.57;3.07;;;30.30;63.30;;;;;;5063362;28;20851;-72
2023/06/28 09:41:11;;;;;;;4.50;2.60;;;29.00;66.10;;;;;;5042446;28;20460;-73
2023/06/28 09:43:39;;;;;;;3.93;2.00;;;28.50;67.20;;;;;;5031083;28;21061;-72
2023/06/28 09:46:13;;;;;;;3.23;1.93;;;28.10;67.40;;;;;;5027777;28;20526;-73
2023/06/28 09:48:44;;;;;;;5.37;3.53;;;28.80;67.10;;;;;;5022526;28;20569;-73
2023/06/28 09:51:12;;;;;;;2.70;2.00;;;28.90;66.00;;;;;;5015343;28;20803;-72
2023/06/28 09:53:49;;;;;;;2.50;2.10;;;28.50;66.50;;;;;;5026666;28;20480;-73
2023/06/28 09:56:16;;;;;;;4.00;2.03;;;28.10;66.70;;;;;;5018768;28;20527;-74
2023/06/28 09:58:47;;;;;;;2.17;1.90;;;28.20;66.50;;;;;;5027379;28;20506;-73
2023/06/28 10:01:15;;;;;;;3.57;2.13;;;28.60;66.40;;;;;;5014736;28;20483;-73
2023/06/28 10:03:44;;;;;;;5.50;2.40;;;29.30;65.50;;;;;;5021801;28;20850;-73
2023/06/28 10:06:12;;;;;;;5.27;2.13;;;30.10;64.70;;;;;;5021847;28;20781;-73
2023/06/28 10:08:39;;;;;;;1.97;1.70;;;30.70;62.30;;;;;;5027081;28;20458;-74
2023/06/28 10:11:13;;;;;;;6.73;2.40;;;30.00;61.80;;;;;;5026019;28;20443;-74
2023/06/28 10:13:42;;;;;;;4.37;2.03;;;29.10;64.20;;;;;;5017074;28;20525;-74
2023/06/28 10:16:15;;;;;;;4.53;2.63;;;28.50;67.50;;;;;;5026855;28;20494;-73
2023/06/28 10:18:43;;;;;;;3.50;2.37;;;28.50;68.30;;;;;;5010091;28;20467;-72
2023/06/28 10:21:10;;;;;;;3.80;2.60;;;27.70;69.70;;;;;;5025149;28;20454;-73
2023/06/28 10:23:39;;;;;;;3.73;2.97;;;27.00;71.40;;;;;;5025712;28;20473;-72
2023/06/28 10:26:06;;;;;;;3.27;2.07;;;26.50;72.10;;;;;;5028316;28;20447;-74
2023/06/28 10:28:34;;;;;;;7.10;2.77;;;26.00;73.20;;;;;;5026144;28;20866;-73
2023/06/28 10:31:03;;;;;;;4.03;2.10;;;25.90;73.60;;;;;;5017051;28;20457;-74
2023/06/28 10:33:32;;;;;;;5.30;2.30;;;26.50;74.60;;;;;;5023293;28;20918;-73
2023/06/28 10:36:00;;;;;;;4.67;1.80;;;27.10;71.10;;;;;;5021212;28;20457;-74
2023/06/28 10:38:28;;;;;;;4.37;2.80;;;27.40;69.70;;;;;;5026071;28;20474;-73
2023/06/28 10:40:56;;;;;;;3.30;2.33;;;27.60;69.10;;;;;;5023708;28;20473;-72
2023/06/28 10:43:24;;;;;;;5.20;2.40;;;27.30;69.20;;;;;;5029235;28;20473;-73
2023/06/28 10:45:52;;;;;;;3.77;2.40;;;27.50;71.00;;;;;;5024079;28;20850;-72
2023/06/28 10:48:20;;;;;;;10.33;2.33;;;27.70;70.30;;;;;;5007971;28;20440;-73
2023/06/28 10:50:52;;;;;;;4.40;2.47;;;27.80;70.00;;;;;;5025916;28;20530;-73
2023/06/28 10:53:23;;;;;;;3.77;2.43;;;27.40;69.80;;;;;;5027004;28;20475;-72
2023/06/28 10:56:11;;;;;;;4.23;2.70;;;27.30;71.20;;;;;;5017184;28;20803;-73
2023/06/28 10:58:38;;;;;;;5.40;2.30;;;27.20;70.80;;;;;;5020237;28;20455;-74
2023/06/28 11:01:07;;;;;;;6.53;2.63;;;26.80;71.90;;;;;;5021508;28;20462;-74
2023/06/28 11:03:42;;;;;;;5.43;2.93;;;26.30;73.90;;;;;;5025938;28;20477;-73
2023/06/28 11:06:12;;;;;;;4.83;2.70;;;26.10;75.90;;;;;;5014010;28;20451;-73
2023/06/28 11:08:41;;;;;;;2.57;2.20;;;25.60;76.50;;;;;;5021207;28;20454;-73
2023/06/28 11:11:10;;;;;;;7.07;2.90;;;25.30;77.20;;;;;;5017152;28;20446;-74
2023/06/28 11:13:48;;;;;;;5.00;2.97;;;25.40;76.90;;;;;;5034733;28;20466;-73
2023/06/28 11:16:20;;;;;;;5.33;3.13;;;25.30;78.80;;;;;;5017997;28;20456;-73
2023/06/28 11:18:47;;;;;;;5.57;3.47;;;25.60;79.50;;;;;;5038867;28;20428;-72
2023/06/28 11:21:18;;;;;;;11.17;5.10;;;25.90;78.40;;;;;;5037338;28;20440;-73
2023/06/28 11:23:48;;;;;;;5.33;3.00;;;26.20;77.30;;;;;;5025341;28;20552;-73
2023/06/28 11:26:16;;;;;;;5.23;2.87;;;26.40;76.40;;;;;;5022803;28;20925;-74
2023/06/28 11:28:51;;;;;;;3.43;2.47;;;26.40;76.40;;;;;;5028371;28;20522;-72
2023/06/28 11:31:21;;;;;;;6.80;2.97;;;25.90;76.00;;;;;;5021804;28;20801;-73
2023/06/28 11:33:50;;;;;;;3.70;3.00;;;25.60;77.40;;;;;;5026060;28;20459;-73
2023/06/28 11:36:19;;;;;;;5.03;2.80;;;25.70;78.00;;;;;;5026994;28;20448;-73
2023/06/28 11:38:47;;;;;;;9.30;3.00;;;25.60;78.60;;;;;;5025318;28;20451;-72
2023/06/28 11:41:15;;;;;;;6.87;3.50;;;25.20;78.70;;;;;;5026768;28;20474;-73
2023/06/28 11:43:44;;;;;;;7.03;4.07;;;25.00;80.10;;;;;;5023581;28;20533;-72
2023/06/28 11:46:16;;;;;;;5.13;3.77;;;24.40;81.10;;;;;;5023834;28;20467;-72
2023/06/28 11:48:43;;;;;;;6.17;3.53;;;24.20;82.10;;;;;;5023950;28;20933;-73
2023/06/28 11:51:13;;;;;;;3.60;2.83;;;24.00;82.70;;;;;;5015320;28;20443;-73
2023/06/28 11:53:41;;;;;;;5.17;2.70;;;24.10;83.30;;;;;;5023140;28;20549;-74
2023/06/28 11:56:08;;;;;;;6.10;3.30;;;24.30;84.60;;;;;;5022121;28;20474;-73
2023/06/28 11:58:37;;;;;;;5.50;3.53;;;24.50;84.40;;;;;;5029437;28;20491;-74
2023/06/28 12:01:05;;;;;;;4.87;3.63;;;24.60;84.30;;;;;;5019963;28;20532;-73
2023/06/28 12:03:34;;;;;;;6.33;4.73;;;24.20;83.20;;;;;;5026818;28;20469;-74
2023/06/28 12:06:03;;;;;;;5.20;3.93;;;24.00;84.40;;;;;;5021162;28;20492;-74
2023/06/28 12:08:34;;;;;;;5.37;3.60;;;24.20;85.00;;;;;;5019951;28;20800;-73
2023/06/28 12:11:09;;;;;;;4.23;2.70;;;24.30;85.10;;;;;;5018446;28;20958;-74
2023/06/28 12:13:36;;;;;;;3.70;2.40;;;24.20;85.30;;;;;;5022286;28;20494;-72
2023/06/28 12:16:13;;;;;;;7.70;3.00;;;23.90;86.00;;;;;;5027985;28;20521;-73
2023/06/28 12:18:54;;;;;;;4.00;3.20;;;23.80;87.20;;;;;;5023647;28;20483;-74
2023/06/28 12:21:22;;;;;;;3.77;3.37;;;24.00;86.70;;;;;;5029868;28;20519;-73
2023/06/28 12:23:49;;;;;;;3.90;3.50;;;24.30;86.80;;;;;;5030789;28;20466;-73
2023/06/28 12:26:18;;;;;;;4.73;4.10;;;24.20;86.80;;;;;;5034362;28;20799;-72
2023/06/28 12:28:48;;;;;;;7.23;4.07;;;24.00;85.90;;;;;;5032949;28;20441;-75
2023/06/28 12:31:15;;;;;;;4.10;3.70;;;23.90;86.40;;;;;;5027204;28;20802;-73
2023/06/28 12:33:42;;;;;;;4.67;3.83;;;23.80;86.70;;;;;;5033853;28;20470;-73
2023/06/28 12:36:14;;;;;;;4.40;3.50;;;23.70;87.20;;;;;;5024596;28;20500;-72
2023/06/28 12:38:45;;;;;;;5.67;4.83;;;23.80;87.70;;;;;;5029202;28;20482;-73
2023/06/28 12:41:14;;;;;;;4.60;4.20;;;23.90;87.10;;;;;;5021070;28;20439;-72
2023/06/28 12:43:42;;;;;;;6.43;4.40;;;23.70;88.20;;;;;;5033583;28;20474;-73
2023/06/28 12:46:11;;;;;;;4.50;4.10;;;23.90;88.00;;;;;;5029143;28;20444;-74
2023/06/28 12:48:38;;;;;;;4.63;4.23;;;24.00;87.70;;;;;;5032770;28;20477;-73
2023/06/28 12:51:05;;;;;;;7.87;5.30;;;24.20;87.50;;;;;;5029169;28;20537;-73
2023/06/28 12:53:32;;;;;;;7.03;4.90;;;24.40;86.50;;;;;;5031126;28;21020;-73
2023/06/28 12:55:59;;;;;;;5.83;5.43;;;24.60;86.30;;;;;;5030232;28;20446;-73
2023/06/28 12:58:26;;;;;;;5.87;5.10;;;24.50;86.50;;;;;;5032429;28;20483;-71
2023/06/28 13:00:56;;;;;;;6.50;5.80;;;24.40;87.40;;;;;;5026074;28;20444;-73
2023/06/28 13:03:23;;;;;;;8.43;6.80;;;24.40;87.90;;;;;;5031392;28;20549;-72
2023/06/28 13:05:50;;;;;;;6.33;5.83;;;24.00;87.40;;;;;;5023321;28;20439;-73
2023/06/28 13:08:19;;;;;;;7.90;6.00;;;23.80;88.40;;;;;;5032616;28;20481;-73
2023/06/28 13:10:46;;;;;;;7.70;5.90;;;23.60;89.90;;;;;;5028729;28;20530;-73
2023/06/28 13:13:13;;;;;;;7.57;6.87;;;23.60;89.90;;;;;;5031091;28;20555;-73
2023/06/28 13:15:39;;;;;;;7.87;7.17;;;23.70;90.00;;;;;;5030516;28;20470;-73
2023/06/28 13:18:08;;;;;;;8.27;7.03;;;23.70;90.50;;;;;;5033141;28;20473;-72
2023/06/28 13:20:35;;;;;;;9.03;8.10;;;23.90;90.40;;;;;;5031207;28;20454;-73
2023/06/28 13:23:02;;;;;;;11.00;9.33;;;24.00;90.10;;;;;;5034381;28;20546;-72
2023/06/28 13:25:28;;;;;;;9.40;8.50;;;24.00;90.20;;;;;;5031153;28;20475;-73
2023/06/28 13:27:55;;;;;;;8.50;7.63;;;24.10;90.30;;;;;;5032685;28;20505;-72
2023/06/28 13:30:22;;;;;;;12.07;11.07;;;24.40;90.20;;;;;;5027204;28;20933;-72
2023/06/28 13:32:52;;;;;;;11.77;10.80;;;24.40;90.10;;;;;;5026021;28;20527;-73
2023/06/28 13:35:20;;;;;;;12.20;11.17;;;24.20;90.00;;;;;;5024641;28;20862;-73
2023/06/28 13:37:48;;;;;;;14.30;13.20;;;24.10;90.30;;;;;;5021041;28;21051;-73
2023/06/28 13:40:15;;;;;;;15.63;13.97;;;23.90;90.70;;;;;;5020343;28;20470;-73
2023/06/28 13:42:43;;;;;;;17.60;16.30;;;23.80;91.30;;;;;;5029717;28;20546;-72
2023/06/28 13:45:13;;;;;;;18.97;17.40;;;23.70;91.40;;;;;;5030274;28;20526;-73
2023/06/28 13:47:40;;;;;;;19.60;18.00;;;23.60;91.40;;;;;;5028555;28;20443;-73
2023/06/28 13:50:08;;;;;;;20.53;18.83;;;23.70;91.50;;;;;;5033185;28;20450;-73
2023/06/28 13:52:36;;;;;;;24.07;22.20;;;23.70;91.40;;;;;;5025063;28;20576;-71
2023/06/28 13:55:05;;;;;;;23.30;21.30;;;23.70;91.80;;;;;;5031549;28;20533;-72
2023/06/28 13:57:32;;;;;;;22.83;19.00;;;23.90;91.70;;;;;;5022659;28;20487;-74
2023/06/28 13:59:59;;;;;;;21.83;19.93;;;24.10;91.50;;;;;;5022195;28;20443;-73
2023/06/28 14:02:27;;;;;;;22.37;20.27;;;24.20;91.20;;;;;;5029328;28;20450;-72
2023/06/28 14:04:53;;;;;;;21.37;18.67;;;24.40;91.20;;;;;;5028000;28;20447;-73
2023/06/28 14:07:20;;;;;;;21.70;19.87;;;24.60;91.10;;;;;;5025289;28;20458;-74
2023/06/28 14:09:49;;;;;;;20.60;18.60;;;24.60;91.00;;;;;;5025548;28;20979;-73
2023/06/28 14:12:16;;;;;;;20.87;18.97;;;24.70;90.80;;;;;;5025326;28;20860;-73
2023/06/28 14:14:43;;;;;;;21.10;19.00;;;24.70;90.80;;;;;;5039584;28;20450;-74
2023/06/28 14:17:10;;;;;;;22.47;20.50;;;24.80;90.50;;;;;;5042164;28;20473;-73
2023/06/28 14:19:37;;;;;;;21.33;19.60;;;24.80;90.60;;;;;;5048381;28;20446;-72
2023/06/28 14:22:04;;;;;;;18.70;17.00;;;24.80;90.60;;;;;;5036036;28;20498;-73
2023/06/28 14:24:31;;;;;;;19.37;17.83;;;24.80;90.80;;;;;;5037445;28;20893;-72
2023/06/28 14:27:00;;;;;;;21.40;19.50;;;24.80;90.80;;;;;;5031695;28;20943;-74
2023/06/28 14:29:26;;;;;;;19.97;18.17;;;24.70;91.00;;;;;;5026474;28;20511;-72
2023/06/28 14:31:54;;;;;;;22.40;20.20;;;24.70;90.90;;;;;;5031606;28;20453;-72
2023/06/28 14:34:20;;;;;;;21.87;19.97;;;24.50;91.00;;;;;;5023267;28;20986;-72